createdAt,value
2022-09-06T00:00:35.007Z,1.50
2022-09-06T00:01:35.374Z,1.80
2022-09-06T00:02:35.753Z,1.40
2022-09-06T00:03:36.087Z,1.40
2022-09-06T00:04:36.461Z,1.60
2022-09-06T00:05:36.712Z,1.40
2022-09-06T00:06:37.032Z,1.40
2022-09-06T00:07:37.353Z,1.40
2022-09-06T00:08:37.679Z,1.50
2022-09-06T00:09:38.004Z,1.50
2022-09-06T00:10:38.404Z,1.50
2022-09-06T00:11:38.709Z,1.40
2022-09-06T00:12:39.045Z,1.30
2022-09-06T00:13:39.381Z,1.40
2022-09-06T00:14:39.700Z,1.40
2022-09-06T00:15:40.174Z,1.50
2022-09-06T00:16:40.407Z,1.40
2022-09-06T00:17:40.730Z,1.30
2022-09-06T00:18:41.051Z,1.40
2022-09-06T00:19:41.392Z,1.30
2022-09-06T00:20:41.996Z,1.30
2022-09-06T00:21:42.085Z,1.30
2022-09-06T00:22:42.444Z,1.30
2022-09-06T00:23:42.775Z,1.40
2022-09-06T00:24:43.154Z,1.30
2022-09-06T00:25:43.491Z,1.50
2022-09-06T00:26:43.816Z,1.30
2022-09-06T00:27:44.134Z,1.30
2022-09-06T00:28:44.499Z,1.20
2022-09-06T00:29:44.809Z,1.10
2022-09-06T00:30:45.202Z,1.20
2022-09-06T00:31:45.521Z,1.20
2022-09-06T00:32:45.895Z,1.20
2022-09-06T00:33:46.188Z,1.30
2022-09-06T00:34:46.518Z,1.10
2022-09-06T00:35:46.891Z,1.40
2022-09-06T00:36:47.237Z,1.10
2022-09-06T00:37:47.598Z,1.40
2022-09-06T00:38:47.928Z,1.50
2022-09-06T00:39:48.301Z,1.10
2022-09-06T00:40:48.637Z,1.40
2022-09-06T00:41:48.978Z,1.20
2022-09-06T00:42:49.287Z,1.20
2022-09-06T00:43:49.608Z,1.30
2022-09-06T00:44:49.929Z,1.20
2022-09-06T00:45:50.341Z,1.20
2022-09-06T00:46:50.649Z,1.20
2022-09-06T00:47:50.967Z,1.20
2022-09-06T00:48:51.298Z,1.20
2022-09-06T00:49:51.618Z,1.30
2022-09-06T00:50:51.960Z,1.10
2022-09-06T00:51:52.283Z,1.00
2022-09-06T00:52:52.610Z,1.40
2022-09-06T00:53:52.931Z,1.10
2022-09-06T00:54:53.280Z,1.10
2022-09-06T00:55:53.624Z,1.20
2022-09-06T00:56:53.952Z,1.10
2022-09-06T00:57:54.294Z,1.20
2022-09-06T00:58:54.627Z,1.00
2022-09-06T00:59:54.956Z,1.40
2022-09-06T01:00:55.314Z,1.00
2022-09-06T01:01:55.738Z,1.00
2022-09-06T01:02:56.105Z,1.10
2022-09-06T01:03:56.326Z,1.00
2022-09-06T01:04:56.637Z,1.10
2022-09-06T01:05:56.965Z,1.10
2022-09-06T01:06:57.335Z,1.10
2022-09-06T01:07:57.664Z,1.00
2022-09-06T01:08:58.010Z,1.10
2022-09-06T01:09:58.334Z,1.00
2022-09-06T01:10:58.724Z,1.30
2022-09-06T01:11:59.032Z,1.20
2022-09-06T01:12:59.356Z,1.10
2022-09-06T01:13:59.667Z,1.20
2022-09-06T01:15:00.003Z,1.00
2022-09-06T01:16:00.401Z,1.00
2022-09-06T01:17:00.654Z,1.10
2022-09-06T01:18:00.983Z,1.20
2022-09-06T01:19:01.304Z,1.00
2022-09-06T01:20:01.608Z,1.10
2022-09-06T01:21:01.959Z,1.10
2022-09-06T01:22:02.267Z,1.00
2022-09-06T01:23:02.605Z,1.30
2022-09-06T01:24:02.931Z,1.00
2022-09-06T01:25:03.268Z,1.00
2022-09-06T01:26:03.599Z,1.10
2022-09-06T01:27:03.917Z,1.10
2022-09-06T01:28:04.240Z,1.10
2022-09-06T01:29:04.562Z,1.10
2022-09-06T01:30:04.885Z,1.30
2022-09-06T01:31:05.328Z,1.00
2022-09-06T01:32:05.570Z,1.10
2022-09-06T01:33:05.886Z,1.20
2022-09-06T01:34:06.201Z,1.10
2022-09-06T01:35:06.522Z,0.90
2022-09-06T01:36:06.861Z,1.10
2022-09-06T01:37:10.435Z,1.00
2022-09-06T01:38:07.489Z,1.10
2022-09-06T01:39:07.815Z,1.20
2022-09-06T01:40:08.171Z,1.00
2022-09-06T01:41:08.549Z,1.10
2022-09-06T01:42:08.882Z,1.00
2022-09-06T01:43:11.036Z,0.90
2022-09-06T01:44:09.522Z,1.20
2022-09-06T01:45:09.872Z,0.90
2022-09-06T01:46:10.273Z,1.20
2022-09-06T01:47:10.578Z,1.00
2022-09-06T01:48:10.911Z,0.90
2022-09-06T01:49:11.235Z,1.00
2022-09-06T01:50:11.566Z,0.90
2022-09-06T01:51:11.899Z,1.10
2022-09-06T01:52:12.250Z,1.20
2022-09-06T01:53:12.572Z,1.10
2022-09-06T01:54:12.937Z,1.10
2022-09-06T01:55:13.254Z,1.00
2022-09-06T01:56:13.598Z,1.00
2022-09-06T01:57:13.929Z,1.00
2022-09-06T01:58:14.265Z,1.10
2022-09-06T01:59:14.593Z,1.10
2022-09-06T02:00:14.921Z,1.10
2022-09-06T02:01:15.272Z,1.00
2022-09-06T02:02:15.616Z,1.00
2022-09-06T02:03:15.949Z,1.10
2022-09-06T02:04:16.276Z,1.10
2022-09-06T02:05:16.603Z,1.50
2022-09-06T02:06:16.946Z,1.00
2022-09-06T02:07:17.278Z,1.00
2022-09-06T02:08:17.597Z,1.10
2022-09-06T02:09:17.937Z,1.00
2022-09-06T02:10:18.278Z,1.00
2022-09-06T02:11:18.632Z,0.90
2022-09-06T02:12:18.941Z,1.10
2022-09-06T02:13:19.257Z,1.00
2022-09-06T02:14:19.607Z,0.90
2022-09-06T02:15:19.923Z,1.10
2022-09-06T02:16:20.313Z,1.00
2022-09-06T02:17:20.544Z,1.10
2022-09-06T02:18:20.876Z,1.10
2022-09-06T02:19:21.186Z,0.90
2022-09-06T02:20:21.536Z,1.40
2022-09-06T02:21:21.854Z,1.10
2022-09-06T02:22:22.208Z,1.00
2022-09-06T02:23:22.530Z,1.00
2022-09-06T02:24:22.862Z,1.00
2022-09-06T02:25:23.185Z,1.10
2022-09-06T02:26:23.540Z,0.90
2022-09-06T02:27:23.852Z,1.10
2022-09-06T02:28:24.197Z,0.90
2022-09-06T02:29:24.542Z,1.10
2022-09-06T02:30:24.939Z,1.00
2022-09-06T02:31:25.199Z,1.00
2022-09-06T02:32:25.523Z,0.90
2022-09-06T02:33:25.864Z,1.10
2022-09-06T02:34:26.188Z,1.00
2022-09-06T02:35:26.501Z,1.00
2022-09-06T02:36:26.840Z,1.00
2022-09-06T02:37:27.195Z,0.90
2022-09-06T02:38:27.612Z,0.80
2022-09-06T02:39:27.904Z,0.90
2022-09-06T02:40:28.184Z,1.00
2022-09-06T02:41:28.509Z,1.20
2022-09-06T02:42:28.837Z,1.00
2022-09-06T02:43:29.143Z,1.00
2022-09-06T02:44:29.473Z,1.00
2022-09-06T02:45:29.792Z,1.10
2022-09-06T02:46:30.194Z,1.30
2022-09-06T02:47:30.410Z,1.20
2022-09-06T02:48:30.752Z,1.10
2022-09-06T02:49:31.088Z,1.10
2022-09-06T02:50:31.453Z,0.90
2022-09-06T02:51:31.799Z,0.90
2022-09-06T02:52:32.158Z,0.90
2022-09-06T02:53:32.491Z,1.10
2022-09-06T02:54:32.812Z,1.00
2022-09-06T02:55:33.140Z,1.00
2022-09-06T02:56:33.479Z,1.00
2022-09-06T02:57:33.798Z,1.10
2022-09-06T02:58:34.130Z,1.20
2022-09-06T02:59:34.457Z,1.00
2022-09-06T03:00:34.792Z,1.10
2022-09-06T03:01:35.200Z,1.10
2022-09-06T03:02:35.458Z,1.20
2022-09-06T03:03:35.812Z,0.90
2022-09-06T03:04:36.135Z,1.00
2022-09-06T03:05:36.458Z,1.10
2022-09-06T03:06:36.798Z,1.10
2022-09-06T03:07:37.124Z,1.00
2022-09-06T03:08:37.464Z,0.90
2022-09-06T03:09:37.784Z,1.20
2022-09-06T03:10:38.132Z,1.00
2022-09-06T03:11:38.506Z,1.00
2022-09-06T03:12:38.838Z,1.00
2022-09-06T03:13:39.155Z,1.00
2022-09-06T03:14:39.504Z,1.00
2022-09-06T03:15:39.820Z,1.00
2022-09-06T03:16:40.206Z,1.10
2022-09-06T03:17:40.439Z,1.00
2022-09-06T03:18:40.769Z,1.10
2022-09-06T03:19:41.111Z,1.10
2022-09-06T03:20:41.438Z,1.00
2022-09-06T03:21:41.771Z,1.00
2022-09-06T03:22:42.106Z,1.00
2022-09-06T03:23:42.440Z,1.10
2022-09-06T03:24:42.771Z,1.10
2022-09-06T03:25:43.107Z,1.10
2022-09-06T03:26:43.453Z,1.00
2022-09-06T03:27:43.774Z,1.10
2022-09-06T03:28:44.099Z,0.90
2022-09-06T03:29:44.432Z,1.20
2022-09-06T03:30:44.851Z,1.10
2022-09-06T03:31:45.198Z,0.80
2022-09-06T03:32:45.533Z,0.90
2022-09-06T03:33:45.866Z,1.10
2022-09-06T03:34:46.194Z,1.20
2022-09-06T03:35:46.516Z,1.00
2022-09-06T03:36:46.874Z,1.00
2022-09-06T03:37:47.187Z,1.30
2022-09-06T03:38:47.508Z,1.10
2022-09-06T03:39:47.866Z,1.10
2022-09-06T03:40:48.169Z,1.10
2022-09-06T03:41:48.505Z,1.60
2022-09-06T03:42:48.835Z,1.10
2022-09-06T03:43:49.150Z,1.30
2022-09-06T03:44:49.478Z,1.00
2022-09-06T03:45:49.892Z,1.00
2022-09-06T03:46:50.138Z,0.90
2022-09-06T03:47:50.463Z,1.30
2022-09-06T03:48:50.795Z,1.10
2022-09-06T03:49:51.122Z,1.10
2022-09-06T03:50:51.455Z,1.10
2022-09-06T03:51:51.793Z,1.30
2022-09-06T03:52:52.154Z,1.20
2022-09-06T03:53:52.466Z,1.10
2022-09-06T03:54:52.814Z,1.10
2022-09-06T03:55:53.153Z,1.40
2022-09-06T03:56:53.494Z,1.20
2022-09-06T03:57:53.819Z,1.30
2022-09-06T03:58:54.159Z,1.20
2022-09-06T03:59:54.522Z,1.00
2022-09-06T04:00:54.890Z,1.10
2022-09-06T04:01:55.349Z,1.20
2022-09-06T04:02:58.638Z,1.00
2022-09-06T04:03:56.892Z,1.20
2022-09-06T04:04:56.244Z,1.40
2022-09-06T04:05:56.610Z,1.20
2022-09-06T04:06:56.964Z,1.20
2022-09-06T04:07:57.313Z,1.20
2022-09-06T04:08:57.664Z,1.10
2022-09-06T04:09:58.011Z,1.20
2022-09-06T04:10:58.364Z,1.30
2022-09-06T04:11:58.810Z,1.70
2022-09-06T04:12:59.050Z,1.10
2022-09-06T04:13:59.390Z,1.30
2022-09-06T04:14:59.721Z,1.10
2022-09-06T04:16:00.076Z,1.30
2022-09-06T04:17:00.475Z,1.50
2022-09-06T04:18:00.729Z,1.10
2022-09-06T04:19:01.059Z,1.50
2022-09-06T04:20:01.410Z,1.50
2022-09-06T04:21:01.758Z,1.30
2022-09-06T04:22:02.119Z,1.20
2022-09-06T04:23:02.437Z,1.20
2022-09-06T04:24:02.762Z,1.50
2022-09-06T04:25:03.099Z,1.30
2022-09-06T04:26:03.430Z,1.30
2022-09-06T04:27:03.789Z,1.30
2022-09-06T04:28:04.147Z,1.30
2022-09-06T04:29:04.466Z,1.20
2022-09-06T04:30:04.797Z,1.30
2022-09-06T04:31:05.439Z,1.20
2022-09-06T04:32:05.587Z,1.20
2022-09-06T04:33:05.819Z,1.40
2022-09-06T04:34:06.132Z,1.40
2022-09-06T04:35:06.504Z,1.30
2022-09-06T04:36:06.824Z,1.30
2022-09-06T04:37:07.181Z,1.30
2022-09-06T04:38:07.507Z,1.30
2022-09-06T04:39:07.886Z,1.30
2022-09-06T04:40:08.295Z,1.50
2022-09-06T04:41:08.545Z,1.10
2022-09-06T04:42:08.896Z,1.40
2022-09-06T04:43:09.236Z,1.50
2022-09-06T04:44:09.586Z,1.40
2022-09-06T04:45:09.922Z,1.30
2022-09-06T04:46:10.379Z,1.30
2022-09-06T04:47:10.672Z,1.40
2022-09-06T04:48:11.037Z,1.40
2022-09-06T04:49:11.370Z,1.40
2022-09-06T04:50:11.702Z,1.20
2022-09-06T04:51:12.035Z,1.50
2022-09-06T04:52:19.407Z,1.30
2022-09-06T04:53:12.709Z,1.40
2022-09-06T04:54:13.024Z,1.50
2022-09-06T04:55:16.058Z,1.40
2022-09-06T04:56:13.706Z,1.60
2022-09-06T04:57:14.077Z,1.50
2022-09-06T04:58:14.427Z,1.50
2022-09-06T04:59:14.780Z,1.50
2022-09-06T05:00:15.071Z,1.40
2022-09-06T05:01:15.603Z,1.50
2022-09-06T05:02:15.879Z,1.50
2022-09-06T05:03:16.128Z,1.50
2022-09-06T05:04:16.458Z,1.40
2022-09-06T05:05:16.782Z,1.40
2022-09-06T05:06:17.155Z,1.40
2022-09-06T05:07:17.490Z,1.40
2022-09-06T05:08:17.870Z,1.60
2022-09-06T05:09:18.204Z,1.60
2022-09-06T05:10:18.543Z,1.60
2022-09-06T05:11:18.883Z,1.30
2022-09-06T05:12:19.217Z,1.50
2022-09-06T05:13:19.584Z,1.40
2022-09-06T05:14:19.927Z,1.20
2022-09-06T05:15:21.102Z,1.40
2022-09-06T05:16:20.572Z,1.70
2022-09-06T05:17:20.863Z,1.30
2022-09-06T05:18:21.180Z,1.30
2022-09-06T05:19:21.505Z,1.30
2022-09-06T05:20:21.822Z,1.60
2022-09-06T05:21:22.147Z,1.50
2022-09-06T05:22:22.474Z,1.50
2022-09-06T05:23:22.833Z,1.50
2022-09-06T05:24:23.153Z,1.40
2022-09-06T05:25:23.479Z,1.50
2022-09-06T05:26:23.805Z,1.40
2022-09-06T05:27:24.123Z,1.50
2022-09-06T05:28:24.574Z,1.90
2022-09-06T05:29:27.567Z,1.50
2022-09-06T05:30:26.213Z,1.80
2022-09-06T05:31:25.596Z,1.60
2022-09-06T05:32:25.913Z,1.40
2022-09-06T05:33:26.323Z,1.30
2022-09-06T05:34:26.523Z,1.30
2022-09-06T05:35:26.914Z,1.50
2022-09-06T05:36:27.123Z,1.40
2022-09-06T05:37:27.445Z,1.20
2022-09-06T05:38:29.740Z,1.20
2022-09-06T05:39:28.182Z,1.50
2022-09-06T05:40:28.477Z,1.40
2022-09-06T05:41:28.860Z,1.60
2022-09-06T05:42:29.184Z,1.70
2022-09-06T05:43:29.562Z,1.30
2022-09-06T05:44:29.880Z,1.60
2022-09-06T05:45:30.276Z,1.20
2022-09-06T05:46:30.576Z,1.20
2022-09-06T05:47:30.914Z,1.30
2022-09-06T05:48:36.102Z,1.30
2022-09-06T05:49:32.604Z,1.50
2022-09-06T05:50:31.801Z,1.20
2022-09-06T05:51:32.132Z,1.20
2022-09-06T05:52:32.475Z,1.60
2022-09-06T05:53:32.809Z,1.50
2022-09-06T05:54:33.141Z,1.40
2022-09-06T05:55:33.467Z,1.30
2022-09-06T05:56:33.795Z,1.40
2022-09-06T05:57:34.111Z,1.40
2022-09-06T05:58:34.501Z,1.40
2022-09-06T05:59:34.817Z,1.60
2022-09-06T06:00:35.132Z,1.40
2022-09-06T06:01:35.495Z,1.50
2022-09-06T06:02:35.828Z,1.50
2022-09-06T06:03:36.178Z,1.50
2022-09-06T06:04:36.504Z,1.70
2022-09-06T06:05:36.852Z,1.50
2022-09-06T06:06:37.176Z,1.50
2022-09-06T06:07:37.493Z,1.40
2022-09-06T06:08:37.864Z,1.60
2022-09-06T06:09:38.192Z,1.50
2022-09-06T06:10:38.809Z,1.70
2022-09-06T06:11:38.892Z,1.60
2022-09-06T06:12:39.222Z,1.50
2022-09-06T06:13:39.641Z,1.40
2022-09-06T06:14:39.836Z,1.50
2022-09-06T06:15:40.145Z,1.50
2022-09-06T06:16:40.543Z,1.40
2022-09-06T06:17:40.723Z,1.60
2022-09-06T06:18:41.051Z,1.70
2022-09-06T06:19:41.361Z,1.50
2022-09-06T06:20:41.666Z,1.70
2022-09-06T06:21:41.976Z,1.40
2022-09-06T06:22:42.295Z,1.40
2022-09-06T06:23:42.624Z,1.60
2022-09-06T06:24:42.946Z,1.60
2022-09-06T06:25:43.286Z,1.50
2022-09-06T06:26:43.617Z,1.40
2022-09-06T06:27:43.920Z,1.60
2022-09-06T06:28:44.242Z,1.60
2022-09-06T06:29:44.559Z,1.40
2022-09-06T06:30:44.865Z,1.60
2022-09-06T06:31:45.229Z,1.50
2022-09-06T06:32:45.544Z,1.40
2022-09-06T06:33:45.878Z,1.50
2022-09-06T06:34:46.189Z,1.60
2022-09-06T06:35:46.488Z,1.50
2022-09-06T06:36:46.814Z,1.80
2022-09-06T06:37:47.216Z,1.50
2022-09-06T06:38:47.424Z,1.50
2022-09-06T06:39:47.818Z,2.00
2022-09-06T06:40:48.015Z,1.70
2022-09-06T06:41:48.318Z,1.60
2022-09-06T06:42:48.646Z,1.40
2022-09-06T06:43:48.924Z,1.50
2022-09-06T06:44:49.222Z,1.70
2022-09-06T06:45:49.569Z,1.70
2022-09-06T06:46:49.837Z,1.50
2022-09-06T06:47:50.123Z,1.30
2022-09-06T06:48:54.155Z,1.30
2022-09-06T06:49:50.685Z,1.20
2022-09-06T06:50:50.983Z,1.50
2022-09-06T06:51:51.300Z,1.50
2022-09-06T06:52:51.594Z,1.50
2022-09-06T06:53:51.943Z,1.60
2022-09-06T06:54:52.315Z,1.50
2022-09-06T06:55:52.513Z,1.50
2022-09-06T06:56:52.824Z,1.60
2022-09-06T06:57:53.145Z,1.70
2022-09-06T06:58:53.495Z,1.60
2022-09-06T06:59:53.795Z,1.60
2022-09-06T07:00:54.197Z,1.60
2022-09-06T07:01:54.580Z,1.50
2022-09-06T07:02:54.723Z,1.70
2022-09-06T07:03:55.042Z,1.60
2022-09-06T07:04:55.350Z,1.80
2022-09-06T07:06:11.527Z,1.80
2022-09-06T07:07:57.243Z,1.50
2022-09-06T07:08:56.567Z,1.60
2022-09-06T07:10:58.132Z,1.50
2022-09-06T07:11:57.463Z,1.50
2022-09-06T07:12:57.763Z,1.80
2022-09-06T07:13:58.079Z,1.60
2022-09-06T07:14:58.381Z,1.60
2022-09-06T07:15:58.746Z,1.70
2022-09-06T07:16:58.912Z,1.30
2022-09-06T07:17:59.329Z,1.70
2022-09-06T07:18:59.584Z,1.50
2022-09-06T07:20:15.516Z,1.60
2022-09-06T07:22:04.498Z,1.70
2022-09-06T07:25:01.082Z,1.50
2022-09-06T07:26:01.387Z,1.60
2022-09-06T07:28:06.007Z,1.80
2022-09-06T07:29:02.288Z,1.60
2022-09-06T07:30:02.557Z,1.70
2022-09-06T07:31:03.008Z,1.50
2022-09-06T07:33:04.496Z,1.80
2022-09-06T07:34:03.796Z,2.20
2022-09-06T07:35:04.075Z,1.90
2022-09-06T07:36:04.373Z,1.60
2022-09-06T07:37:04.662Z,1.70
2022-09-06T07:38:04.968Z,1.70
2022-09-06T07:39:05.310Z,1.90
2022-09-06T07:40:05.547Z,2.10
2022-09-06T07:41:05.747Z,1.80
2022-09-06T07:42:06.031Z,1.70
2022-09-06T07:43:06.356Z,1.90
2022-09-06T07:44:06.669Z,1.80
2022-09-06T07:45:06.952Z,1.90
2022-09-06T07:46:07.286Z,2.10
2022-09-06T07:48:08.823Z,1.90
2022-09-06T07:49:08.110Z,1.60
2022-09-06T07:51:09.729Z,1.70
2022-09-06T07:53:13.982Z,1.90
2022-09-06T07:54:29.861Z,1.90
2022-09-06T07:55:10.761Z,2.00
2022-09-06T07:56:10.032Z,2.00
2022-09-06T07:57:10.310Z,1.90
2022-09-06T07:58:10.593Z,1.80
2022-09-06T07:59:10.896Z,1.70
2022-09-06T08:00:11.174Z,1.70
2022-09-06T08:01:11.526Z,1.90
2022-09-06T08:02:11.771Z,1.80
2022-09-06T08:03:12.126Z,2.00
2022-09-06T08:04:12.200Z,1.80
2022-09-06T08:06:13.738Z,1.80
2022-09-06T08:09:14.511Z,1.90
2022-09-06T08:10:15.861Z,2.00
2022-09-06T08:11:14.133Z,2.20
2022-09-06T08:12:14.418Z,1.80
2022-09-06T08:13:14.710Z,1.90
2022-09-06T08:14:15.052Z,2.00
2022-09-06T08:15:15.262Z,2.10
2022-09-06T08:16:15.638Z,2.50
2022-09-06T08:17:15.807Z,2.00
2022-09-06T08:18:16.075Z,1.80
2022-09-06T08:19:16.371Z,2.30
2022-09-06T08:20:16.655Z,2.00
2022-09-06T08:21:16.932Z,2.00
2022-09-06T08:22:17.211Z,1.80
2022-09-06T08:23:17.495Z,2.20
2022-09-06T08:24:17.819Z,2.20
2022-09-06T08:25:18.105Z,3.20
2022-09-06T08:26:18.394Z,2.80
2022-09-06T08:27:18.672Z,2.20
2022-09-06T08:28:18.953Z,2.20
2022-09-06T08:29:19.271Z,2.10
2022-09-06T08:30:19.657Z,1.90
2022-09-06T08:31:19.925Z,2.20
2022-09-06T08:32:20.240Z,1.90
2022-09-06T08:33:20.531Z,2.00
2022-09-06T08:34:20.880Z,2.20
2022-09-06T08:35:21.155Z,2.00
2022-09-06T08:36:21.421Z,2.10
2022-09-06T08:37:24.917Z,2.00
2022-09-06T08:38:21.986Z,2.30
2022-09-06T08:39:22.270Z,1.90
2022-09-06T08:40:22.548Z,2.10
2022-09-06T08:41:22.802Z,2.00
2022-09-06T08:42:23.057Z,2.10
2022-09-06T08:43:23.374Z,2.40
2022-09-06T08:45:24.873Z,2.20
2022-09-06T08:46:24.202Z,2.00
2022-09-06T08:47:24.469Z,2.10
2022-09-06T08:48:24.743Z,2.00
2022-09-06T08:49:25.039Z,2.00
2022-09-06T08:50:25.299Z,2.40
2022-09-06T08:51:25.594Z,2.00
2022-09-06T08:52:25.884Z,1.90
2022-09-06T08:53:26.149Z,2.00
2022-09-06T08:54:26.437Z,2.10
2022-09-06T08:55:26.712Z,2.30
2022-09-06T08:56:26.981Z,2.00
2022-09-06T08:57:27.255Z,2.10
2022-09-06T08:58:27.633Z,2.00
2022-09-06T08:59:27.806Z,2.00
2022-09-06T09:00:28.132Z,2.20
2022-09-06T09:01:28.305Z,2.00
2022-09-06T09:02:28.600Z,2.00
2022-09-06T09:03:28.791Z,2.10
2022-09-06T09:04:29.086Z,2.00
2022-09-06T09:05:29.371Z,2.20
2022-09-06T09:06:29.634Z,2.00
2022-09-06T09:07:29.901Z,2.10
2022-09-06T09:08:30.301Z,2.00
2022-09-06T09:09:30.451Z,2.20
2022-09-06T09:10:30.709Z,2.40
2022-09-06T09:11:30.954Z,2.00
2022-09-06T09:12:31.210Z,2.20
2022-09-06T09:13:31.472Z,2.20
2022-09-06T09:14:31.780Z,2.20
2022-09-06T09:15:32.057Z,2.40
2022-09-06T09:16:32.382Z,2.20
2022-09-06T09:17:32.585Z,2.40
2022-09-06T09:18:32.841Z,2.50
2022-09-06T09:19:33.124Z,2.10
2022-09-06T09:20:33.383Z,2.10
2022-09-06T09:21:33.658Z,2.40
2022-09-06T09:22:33.934Z,2.40
2022-09-06T09:23:34.192Z,2.20
2022-09-06T09:24:34.463Z,2.20
2022-09-06T09:25:34.729Z,1.90
2022-09-06T09:26:35.902Z,2.40
2022-09-06T09:27:35.257Z,2.10
2022-09-06T09:28:35.503Z,2.30
2022-09-06T09:29:36.473Z,2.40
2022-09-06T09:30:51.216Z,2.20
2022-09-06T09:31:37.285Z,2.40
2022-09-06T09:32:36.465Z,2.40
2022-09-06T09:33:36.721Z,2.50
2022-09-06T09:34:36.989Z,2.30
2022-09-06T09:35:37.269Z,2.40
2022-09-06T09:36:37.501Z,2.60
2022-09-06T09:38:39.042Z,2.60
2022-09-06T09:39:38.467Z,2.40
2022-09-06T09:40:38.514Z,3.00
2022-09-06T09:41:38.788Z,2.20
2022-09-06T09:42:39.049Z,2.20
2022-09-06T09:43:39.332Z,2.30
2022-09-06T09:44:39.659Z,2.40
2022-09-06T09:45:39.903Z,2.20
2022-09-06T09:46:40.245Z,2.60
2022-09-06T09:47:40.501Z,2.30
2022-09-06T09:48:40.772Z,2.40
2022-09-06T09:49:41.057Z,2.30
2022-09-06T09:50:41.334Z,2.60
2022-09-06T09:51:41.643Z,2.50
2022-09-06T09:52:41.924Z,2.40
2022-09-06T09:53:42.207Z,2.40
2022-09-06T09:54:42.495Z,2.60
2022-09-06T09:55:42.780Z,2.60
2022-09-06T09:56:43.051Z,2.30
2022-09-06T09:57:43.331Z,2.70
2022-09-06T09:58:43.614Z,2.80
2022-09-06T09:59:43.916Z,2.70
2022-09-06T10:00:44.231Z,2.30
2022-09-06T10:01:44.484Z,2.50
2022-09-06T10:02:44.745Z,2.90
2022-09-06T10:04:46.288Z,2.60
2022-09-06T10:05:45.539Z,2.60
2022-09-06T10:07:47.065Z,2.30
2022-09-06T10:08:46.325Z,2.90
2022-09-06T10:09:46.606Z,2.80
2022-09-06T10:10:46.869Z,2.60
2022-09-06T10:11:47.130Z,3.10
2022-09-06T10:12:47.392Z,2.90
2022-09-06T10:13:47.674Z,2.80
2022-09-06T10:14:47.958Z,2.50
2022-09-06T10:15:48.309Z,2.80
2022-09-06T10:16:48.474Z,2.80
2022-09-06T10:17:48.734Z,3.10
2022-09-06T10:18:49.012Z,2.80
2022-09-06T10:19:49.317Z,2.70
2022-09-06T10:20:49.605Z,3.40
2022-09-06T10:21:49.900Z,3.00
2022-09-06T10:22:50.201Z,2.90
2022-09-06T10:24:51.761Z,3.00
2022-09-06T10:25:51.046Z,2.80
2022-09-06T10:26:51.331Z,3.00
2022-09-06T10:28:10.363Z,3.00
2022-09-06T10:28:52.889Z,2.90
2022-09-06T10:29:52.189Z,3.00
2022-09-06T10:30:52.521Z,3.20
2022-09-06T10:31:52.782Z,3.00
2022-09-06T10:32:53.071Z,3.10
2022-09-06T10:33:53.361Z,2.90
2022-09-06T10:34:53.683Z,3.10
2022-09-06T10:35:53.967Z,3.10
2022-09-06T10:36:54.272Z,2.90
2022-09-06T10:37:54.564Z,3.00
2022-09-06T10:38:54.850Z,3.30
2022-09-06T10:39:55.249Z,3.20
2022-09-06T10:40:55.447Z,3.20
2022-09-06T10:41:55.762Z,3.30
2022-09-06T10:42:56.078Z,3.40
2022-09-06T10:43:56.362Z,3.10
2022-09-06T10:44:56.656Z,2.90
2022-09-06T10:45:56.942Z,3.30
2022-09-06T10:46:57.299Z,2.90
2022-09-06T10:47:57.546Z,2.90
2022-09-06T10:48:57.827Z,3.00
2022-09-06T10:49:58.147Z,3.00
2022-09-06T10:50:58.428Z,2.90
2022-09-06T10:51:58.723Z,3.10
2022-09-06T10:52:59.032Z,2.90
2022-09-06T10:53:59.331Z,2.90
2022-09-06T10:54:59.635Z,3.00
2022-09-06T10:56:01.589Z,3.00
2022-09-06T10:57:00.194Z,3.00
2022-09-06T11:00:01.977Z,3.00
2022-09-06T11:01:01.278Z,3.20
2022-09-06T11:02:04.581Z,3.10
2022-09-06T11:04:06.802Z,3.00
2022-09-06T11:06:03.593Z,3.30
2022-09-06T11:07:02.872Z,3.10
2022-09-06T11:09:04.398Z,3.50
2022-09-06T11:10:03.684Z,3.20
2022-09-06T11:11:03.944Z,2.80
2022-09-06T11:12:04.265Z,2.70
2022-09-06T11:13:04.526Z,3.30
2022-09-06T11:14:05.766Z,3.00
2022-09-06T11:15:05.043Z,2.80
2022-09-06T11:16:05.410Z,2.70
2022-09-06T11:17:05.562Z,2.90
2022-09-06T11:18:05.844Z,2.80
2022-09-06T11:19:06.124Z,3.00
2022-09-06T11:20:06.423Z,2.90
2022-09-06T11:21:06.692Z,3.00
2022-09-06T11:22:06.962Z,3.10
2022-09-06T11:23:07.222Z,3.10
2022-09-06T11:24:07.489Z,2.70
2022-09-06T11:25:07.771Z,2.60
2022-09-06T11:26:08.039Z,3.00
2022-09-06T11:27:08.321Z,2.90
2022-09-06T11:28:08.584Z,3.00
2022-09-06T11:29:08.867Z,2.80
2022-09-06T11:30:09.207Z,3.30
2022-09-06T11:31:09.782Z,2.90
2022-09-06T11:32:17.344Z,3.00
2022-09-06T11:33:11.022Z,3.00
2022-09-06T11:34:10.293Z,3.10
2022-09-06T11:35:10.584Z,4.50
2022-09-06T11:36:10.872Z,3.20
2022-09-06T11:37:11.142Z,3.30
2022-09-06T11:38:11.413Z,3.40
2022-09-06T11:39:11.696Z,3.80
2022-09-06T11:40:28.384Z,3.20
2022-09-06T11:41:13.237Z,3.40
2022-09-06T11:42:12.510Z,3.00
2022-09-06T11:43:12.772Z,3.10
2022-09-06T11:44:13.058Z,3.40
2022-09-06T11:45:13.411Z,3.10
2022-09-06T11:46:17.399Z,3.10
2022-09-06T11:47:14.912Z,2.90
2022-09-06T11:48:14.182Z,2.90
2022-09-06T11:49:14.483Z,3.50
2022-09-06T11:50:14.777Z,3.60
2022-09-06T11:51:15.067Z,3.20
2022-09-06T11:52:15.361Z,3.20
2022-09-06T11:53:15.643Z,3.20
2022-09-06T11:54:15.926Z,3.10
2022-09-06T11:55:18.884Z,3.20
2022-09-06T11:56:17.515Z,3.30
2022-09-06T11:57:16.711Z,3.20
2022-09-06T11:58:16.993Z,3.10
2022-09-06T11:59:17.320Z,3.00
2022-09-06T12:00:17.602Z,3.30
2022-09-06T12:01:17.895Z,3.30
2022-09-06T12:02:18.299Z,3.40
2022-09-06T12:04:19.760Z,3.20
2022-09-06T12:05:19.063Z,3.80
2022-09-06T12:06:19.347Z,3.20
2022-09-06T12:07:19.641Z,3.50
2022-09-06T12:08:19.922Z,3.30
2022-09-06T12:09:20.207Z,3.30
2022-09-06T12:10:20.501Z,3.40
2022-09-06T12:11:20.791Z,3.40
2022-09-06T12:12:21.057Z,3.40
2022-09-06T12:13:21.342Z,3.00
2022-09-06T12:14:21.615Z,3.60
2022-09-06T12:15:21.924Z,3.70
2022-09-06T12:16:22.310Z,3.80
2022-09-06T12:17:22.504Z,3.60
2022-09-06T12:18:22.837Z,3.80
2022-09-06T12:19:23.116Z,3.60
2022-09-06T12:20:23.413Z,3.60
2022-09-06T12:21:23.704Z,3.20
2022-09-06T12:22:23.990Z,3.40
2022-09-06T12:23:24.274Z,3.90
2022-09-06T12:24:24.555Z,3.40
2022-09-06T12:25:24.867Z,3.50
2022-09-06T12:26:25.153Z,3.10
2022-09-06T12:27:25.435Z,3.50
2022-09-06T12:28:25.743Z,3.90
2022-09-06T12:29:26.005Z,3.50
2022-09-06T12:30:26.332Z,3.80
2022-09-06T12:31:26.628Z,3.10
2022-09-06T12:32:26.918Z,3.00
2022-09-06T12:33:27.195Z,3.00
2022-09-06T12:34:27.467Z,2.90
2022-09-06T12:36:29.011Z,3.00
2022-09-06T12:37:28.283Z,2.90
2022-09-06T12:38:28.692Z,3.00
2022-09-06T12:39:28.868Z,3.00
2022-09-06T12:40:29.084Z,2.90
2022-09-06T12:41:29.361Z,3.10
2022-09-06T12:42:29.643Z,2.90
2022-09-06T12:43:29.924Z,3.20
2022-09-06T12:44:30.193Z,3.40
2022-09-06T12:45:30.479Z,3.00
2022-09-06T12:46:30.833Z,3.20
2022-09-06T12:47:30.972Z,3.60
2022-09-06T12:48:31.337Z,3.40
2022-09-06T12:49:31.483Z,3.70
2022-09-06T12:50:31.765Z,3.30
2022-09-06T12:51:32.028Z,3.30
2022-09-06T12:52:32.273Z,3.10
2022-09-06T12:53:32.527Z,3.30
2022-09-06T12:54:32.789Z,3.50
2022-09-06T12:55:33.065Z,3.40
2022-09-06T12:56:33.317Z,3.60
2022-09-06T12:57:33.590Z,3.30
2022-09-06T12:58:33.847Z,3.90
2022-09-06T12:59:34.081Z,3.10
2022-09-06T13:00:34.359Z,3.10
2022-09-06T13:01:34.697Z,3.20
2022-09-06T13:02:34.919Z,3.30
2022-09-06T13:03:34.995Z,3.10
2022-09-06T13:04:35.225Z,3.30
2022-09-06T13:05:35.505Z,3.00
2022-09-06T13:06:35.734Z,3.10
2022-09-06T13:07:35.996Z,3.10
2022-09-06T13:08:36.315Z,2.70
2022-09-06T13:09:36.446Z,3.00
2022-09-06T13:10:36.707Z,3.20
2022-09-06T13:11:36.971Z,3.10
2022-09-06T13:12:37.226Z,3.10
2022-09-06T13:13:37.522Z,3.20
2022-09-06T13:14:37.804Z,3.30
2022-09-06T13:15:38.165Z,3.00
2022-09-06T13:16:38.326Z,3.40
2022-09-06T13:17:38.597Z,2.80
2022-09-06T13:18:38.854Z,3.00
2022-09-06T13:19:39.126Z,3.10
2022-09-06T13:20:39.410Z,3.20
2022-09-06T13:21:39.686Z,2.90
2022-09-06T13:22:39.967Z,3.00
2022-09-06T13:23:40.227Z,3.00
2022-09-06T13:24:43.415Z,3.10
2022-09-06T13:25:41.741Z,3.10
2022-09-06T13:26:40.995Z,2.90
2022-09-06T13:27:41.258Z,3.10
2022-09-06T13:28:41.530Z,3.10
2022-09-06T13:29:41.804Z,2.90
2022-09-06T13:30:42.780Z,2.90
2022-09-06T13:31:42.385Z,3.30
2022-09-06T13:32:42.646Z,3.20
2022-09-06T13:33:42.910Z,3.30
2022-09-06T13:34:43.176Z,3.00
2022-09-06T13:35:43.468Z,3.00
2022-09-06T13:36:43.731Z,3.10
2022-09-06T13:37:44.006Z,3.20
2022-09-06T13:38:44.277Z,3.20
2022-09-06T13:39:44.617Z,3.10
2022-09-06T13:41:09.602Z,3.10
2022-09-06T13:41:46.006Z,3.30
2022-09-06T13:42:45.273Z,3.10
2022-09-06T13:43:45.547Z,3.20
2022-09-06T13:44:45.801Z,3.10
2022-09-06T13:45:46.078Z,3.20
2022-09-06T13:46:46.392Z,3.10
2022-09-06T13:47:46.547Z,3.00